.
WxDataArchive / Data Records for 2008-06-09
2008-06-08 June 2008 2008-06-10

Data Records for Monday, 09 June 2008

Time	Temp	Chill	HIndex	Humid	Dewpt	 Wind 	HiWind	WindDir	Rain 	Barom 
-----	----	-----	------	-----	-----	------	------	-------	-----	----- 
00:00	79.8	79.8	82.5	69	68.7	1	3	248	0.00	29.779 
00:05	79.6	79.6	82.2	69	68.5	0	2	225	0.00	29.779 
00:10	79.6	79.6	82.2	69	68.5	1	5	45	0.00	29.779 
00:15	79.6	79.6	82.2	69	68.5	1	5	248	0.00	29.775 
00:20	79.6	79.6	82.2	69	68.5	1	4	248	0.00	29.775 
00:25	79.6	79.6	82.2	69	68.5	1	6	270	0.00	29.775 
00:30	79.6	79.6	82.2	69	68.5	2	4	248	0.00	29.767 
00:35	79.6	79.6	82.2	69	68.5	1	3	248	0.00	29.767 
00:40	79.4	79.4	81.9	69	68.3	1	2	248	0.00	29.767 
00:45	79.4	79.4	81.9	69	68.3	1	3	248	0.00	29.765 
00:50	79.2	79.2	81.7	70	68.5	1	2	270	0.00	29.765 
00:55	79.0	79.0	81.4	70	68.4	1	3	248	0.00	29.765 
01:00	78.8	78.8	81.1	70	68.2	1	4	248	0.00	29.765 
01:05	78.8	78.8	81.1	70	68.2	1	4	248	0.00	29.765 
01:10	78.8	78.8	81.1	70	68.2	1	6	270	0.00	29.765 
01:15	79.0	79.0	81.4	70	68.4	1	3	248	0.00	29.772 
01:20	79.0	79.0	81.4	70	68.4	0	2	248	0.00	29.772 
01:25	78.8	78.8	81.1	70	68.2	0	3	248	0.00	29.772 
01:30	78.8	78.8	81.1	70	68.2	1	4	90	0.00	29.771 
01:35	78.8	78.8	81.1	70	68.2	1	5	270	0.00	29.771 
01:40	78.8	78.8	81.1	70	68.2	1	4	292	0.00	29.771 
01:45	78.6	78.6	80.8	70	68.0	1	3	248	0.00	29.773 
01:50	78.6	78.6	80.8	70	68.0	1	3	248	0.00	29.773 
01:55	78.5	78.5	80.7	70	67.9	0	5	248	0.00	29.773 
02:00	78.3	78.3	80.5	71	68.1	0	2	248	0.00	29.764 
02:05	78.1	78.1	80.2	71	67.9	1	3	248	0.00	29.764 
02:10	78.1	78.1	80.2	71	67.9	1	5	270	0.00	29.764 
02:15	78.1	78.1	80.2	71	67.9	1	5	248	0.00	29.761 
02:20	78.1	78.1	80.2	71	67.9	1	4	248	0.00	29.761 
02:25	78.1	78.1	80.2	70	67.5	1	5	270	0.00	29.761 
02:30	78.1	78.1	80.2	70	67.5	1	3	270	0.00	29.759 
02:35	78.1	78.1	80.2	70	67.5	1	4	270	0.00	29.759 
02:40	78.1	78.1	80.2	70	67.5	2	6	248	0.00	29.759 
02:45	78.1	78.1	80.1	69	67.1	1	5	248	0.00	29.754 
02:50	78.1	78.1	80.1	69	67.1	1	4	248	0.00	29.754 
02:55	78.3	78.3	80.4	69	67.3	2	5	270	0.00	29.754 
03:00	78.3	78.3	80.4	69	67.3	1	4	248	0.00	29.756 
03:05	78.3	78.3	80.4	69	67.3	1	6	270	0.00	29.756 
03:10	78.1	78.1	80.1	69	67.1	1	6	248	0.00	29.756 
03:15	78.1	78.1	80.1	69	67.1	1	7	225	0.00	29.748 
03:20	78.1	78.1	80.1	69	67.1	1	6	248	0.00	29.748 
03:25	78.1	78.1	80.1	69	67.1	2	5	248	0.00	29.748 
03:30	78.3	78.3	80.3	68	66.8	2	10	270	0.00	29.744 
03:35	78.3	78.3	80.3	68	66.8	2	6	270	0.00	29.744 
03:40	78.3	78.3	80.3	68	66.8	1	4	270	0.00	29.744 
03:45	78.3	78.3	80.3	67	66.4	2	4	270	0.00	29.741 
03:50	78.3	78.3	80.3	67	66.4	2	4	248	0.00	29.741 
03:55	78.3	78.3	80.3	67	66.4	2	6	248	0.00	29.741 
04:00	78.3	78.3	80.3	67	66.4	2	7	248	0.00	29.743 
04:05	78.3	78.3	80.3	67	66.4	2	5	270	0.00	29.743 
04:10	78.3	78.3	80.3	67	66.4	2	6	248	0.00	29.743 
04:15	78.3	78.3	80.3	67	66.4	1	5	248	0.00	29.746 
04:20	78.1	78.1	80.1	68	66.7	2	6	248	0.00	29.746 
04:25	77.9	77.9	79.8	68	66.5	1	4	270	0.00	29.746 
04:30	77.7	77.7	79.6	68	66.3	2	5	248	0.00	29.746 
04:35	77.7	77.7	79.6	68	66.3	2	7	248	0.00	29.746 
04:40	77.7	77.7	79.6	68	66.3	2	6	248	0.00	29.746 
04:45	77.9	77.9	79.8	68	66.5	2	4	248	0.00	29.747 
04:50	77.9	77.9	79.8	68	66.5	1	4	270	0.00	29.747 
04:55	77.7	77.7	79.6	69	66.7	1	6	248	0.00	29.747 
05:00	77.6	77.6	79.5	69	66.6	1	5	225	0.00	29.746 
05:05	77.4	77.4	79.2	69	66.4	1	5	248	0.00	29.746 
05:10	77.2	77.2	79.0	69	66.2	1	3	248	0.00	29.746 
05:15	77.4	77.4	79.2	69	66.4	1	5	248	0.00	29.757 
05:20	77.4	77.4	79.2	69	66.4	1	3	248	0.00	29.757 
05:25	77.2	77.2	79.0	70	66.6	1	3	248	0.00	29.757 
05:30	77.0	77.0	78.8	70	66.4	1	4	248	0.00	29.764 
05:35	76.8	76.8	78.5	70	66.3	1	4	225	0.00	29.764 
05:40	76.8	76.8	78.5	71	66.7	1	3	248	0.00	29.764 
05:45	76.8	76.8	78.5	71	66.7	1	4	248	0.00	29.764 
05:50	77.0	77.0	78.8	70	66.4	2	5	270	0.00	29.764 
05:55	77.2	77.2	79.0	70	66.6	1	5	270	0.00	29.764 
06:00	77.2	77.2	79.0	70	66.6	1	5	248	0.00	29.768 
06:05	77.2	77.2	79.0	70	66.6	2	5	248	0.00	29.768 
06:10	77.2	77.2	79.0	70	66.6	1	3	315	0.00	29.768 
06:15	77.4	77.4	79.3	70	66.8	1	6	225	0.00	29.764 
06:20	77.6	77.6	79.5	70	67.0	1	3	270	0.00	29.764 
06:25	77.7	77.7	79.6	70	67.1	1	2	248	0.00	29.764 
06:30	77.9	77.9	79.9	70	67.3	0	2	248	0.00	29.764 
06:35	78.1	78.1	80.2	70	67.5	1	7	248	0.00	29.764 
06:40	78.3	78.3	80.4	69	67.3	1	4	248	0.00	29.764 
06:45	78.5	78.5	80.7	69	67.5	1	4	270	0.00	29.772 
06:50	78.5	78.5	80.7	69	67.5	1	3	248	0.00	29.772 
06:55	78.6	78.6	80.8	69	67.6	1	2	248	0.00	29.772 
07:00	78.8	78.8	81.1	69	67.7	1	5	225	0.00	29.766 
07:05	79.0	79.0	81.3	69	67.9	1	3	248	0.00	29.766 
07:10	79.0	79.0	81.3	69	67.9	1	3	248	0.00	29.766 
07:15	79.0	79.0	81.3	69	67.9	2	5	248	0.00	29.765 
07:20	79.2	79.2	81.6	69	68.1	1	3	248	0.00	29.765 
07:25	79.4	79.4	81.9	69	68.3	2	4	248	0.00	29.765 
07:30	79.4	79.4	81.9	69	68.3	2	9	248	0.00	29.773 
07:35	79.6	79.6	82.2	69	68.5	1	8	90	0.00	29.773 
07:40	79.6	79.6	82.1	68	68.1	2	6	270	0.00	29.773 
07:45	79.6	79.6	82.1	68	68.1	2	5	292	0.00	29.769 
07:50	79.8	79.8	82.5	69	68.7	2	5	248	0.00	29.769 
07:55	79.9	79.9	82.6	68	68.4	2	4	248	0.00	29.769 
08:00	79.9	79.9	82.5	67	67.9	3	7	270	0.00	29.767 
08:05	79.9	79.9	82.6	68	68.4	2	9	248	0.00	29.767 
08:10	80.1	80.1	82.7	67	68.1	3	7	270	0.00	29.767 
08:15	80.1	80.1	82.9	68	68.6	3	9	248	0.00	29.760 
08:20	80.5	80.5	83.5	68	68.9	2	5	248	0.00	29.760 
08:25	80.7	80.7	83.5	66	68.3	3	7	270	0.00	29.760 
08:30	80.9	80.9	84.0	67	68.9	2	7	248	0.00	29.755 
08:35	80.9	80.9	84.0	67	68.9	4	11	270	0.00	29.755 
08:40	81.1	81.1	84.5	68	69.5	2	9	248	0.00	29.755 
08:45	81.2	81.2	84.3	66	68.7	3	8	270	0.00	29.758 
08:50	81.4	81.4	84.6	66	68.9	3	7	248	0.00	29.758 
08:55	81.6	81.6	84.7	65	68.7	3	7	315	0.00	29.758 
09:00	81.6	81.6	84.7	65	68.7	3	7	270	0.00	29.754 
09:05	81.6	81.6	84.7	65	68.7	3	7	270	0.00	29.754 
09:10	81.8	81.8	85.1	65	68.9	3	6	270	0.00	29.754 
09:15	82.2	82.2	85.9	66	69.7	2	7	270	0.00	29.750 
09:20	82.6	82.6	86.4	65	69.6	2	6	248	0.00	29.750 
09:25	83.0	83.0	87.1	65	70.0	1	4	270	0.00	29.750 
09:30	83.0	83.0	86.9	64	69.5	3	10	270	0.00	29.745 
09:35	83.0	83.0	87.1	65	70.0	3	9	270	0.00	29.745 
09:40	83.0	83.0	86.9	64	69.5	3	9	248	0.00	29.745 
09:45	83.0	83.0	87.1	65	70.0	3	10	270	0.00	29.743 
09:50	83.4	83.4	87.3	63	69.5	2	5	270	0.00	29.743 
09:55	83.6	83.6	87.4	62	69.2	3	6	270	0.00	29.743 
10:00	83.6	83.6	87.4	62	69.2	3	14	270	0.00	29.743 
10:05	83.8	83.8	88.0	63	69.8	2	7	248	0.00	29.743 
10:10	84.0	84.0	87.5	60	68.6	3	8	248	0.00	29.743 
10:15	84.0	84.0	87.5	60	68.6	4	10	270	0.00	29.743 
10:20	84.3	84.3	88.6	62	69.8	2	6	248	0.00	29.743 
10:25	84.5	84.5	88.4	60	69.1	2	6	270	0.00	29.743 
10:30	84.9	84.9	89.4	61	69.9	2	7	248	0.00	29.740 
10:35	85.3	85.3	89.5	59	69.3	2	4	270	0.00	29.740 
10:40	85.7	85.7	90.2	59	69.7	2	7	292	0.00	29.740 
10:45	85.7	85.7	89.9	58	69.2	3	6	248	0.00	29.741 
10:50	85.7	85.7	89.9	58	69.2	3	7	270	0.00	29.741 
10:55	85.7	85.7	89.5	57	68.7	3	6	270	0.00	29.741 
11:00	85.9	85.9	89.2	55	67.8	4	11	270	0.00	29.748 
11:05	86.1	86.1	89.9	56	68.5	3	11	248	0.00	29.748 
11:10	86.3	86.3	90.2	56	68.7	3	12	270	0.00	29.748 
11:15	86.3	86.3	90.9	58	69.7	3	11	270	0.00	29.754 
11:20	86.5	86.5	90.6	56	68.9	4	9	270	0.00	29.754 
11:25	87.0	87.0	91.9	57	69.9	2	7	248	0.00	29.754 
11:30	87.4	87.4	92.6	57	70.3	2	6	270	0.00	29.756 
11:35	87.6	87.6	91.8	54	68.9	3	10	270	0.00	29.756 
11:40	87.4	87.4	91.1	53	68.1	4	8	270	0.00	29.756 
11:45	87.8	87.8	93.0	56	70.1	2	6	270	0.00	29.756 
11:50	87.8	87.8	91.8	53	68.5	4	13	270	0.00	29.756 
11:55	88.0	88.0	92.6	54	69.2	3	9	248	0.00	29.756 
12:00	87.6	87.6	91.8	54	68.9	4	8	248	0.00	29.757 
12:05	87.2	87.2	91.5	55	69.0	3	11	270	0.00	29.757 
12:10	87.4	87.4	91.1	53	68.1	3	11	270	0.00	29.757 
12:15	87.8	87.8	92.2	54	69.0	3	10	270	0.00	29.759 
12:20	87.6	87.6	91.5	53	68.3	4	10	270	0.00	29.759 
12:25	88.0	88.0	92.2	53	68.7	3	7	248	0.00	29.759 
12:30	88.2	88.2	92.5	53	68.9	2	6	270	0.00	29.758 
12:35	88.0	88.0	91.8	52	68.1	3	7	270	0.00	29.758 
12:40	88.2	88.2	92.5	53	68.9	3	7	270	0.00	29.758 
12:45	88.4	88.4	92.5	52	68.5	4	9	270	0.00	29.755 
12:50	88.2	88.2	91.8	51	67.7	4	7	270	0.00	29.755 
12:55	87.6	87.6	91.1	52	67.8	3	9	248	0.00	29.755 
13:00	87.4	87.4	91.9	55	69.2	2	4	270	0.00	29.757 
13:05	87.0	87.0	90.8	54	68.3	3	7	270	0.00	29.757 
13:10	87.6	87.6	92.2	55	69.4	2	5	248	0.00	29.757 
13:15	88.2	88.2	93.4	55	70.0	2	8	248	0.00	29.755 
13:20	88.4	88.4	92.1	51	67.9	3	10	270	0.00	29.755 
13:25	88.2	88.2	92.1	52	68.3	2	6	270	0.00	29.755 
13:30	87.2	87.2	91.1	54	68.5	2	5	270	0.00	29.749 
13:35	86.5	86.5	91.0	57	69.4	1	4	270	0.00	29.749 
13:40	87.0	87.0	91.1	55	68.8	3	6	270	0.00	29.749 
13:45	87.2	87.2	91.5	55	69.0	3	5	270	0.00	29.749 
13:50	87.4	87.4	92.2	56	69.7	2	6	270	0.00	29.749 
13:55	88.0	88.0	92.6	54	69.2	2	5	248	0.00	29.749 
14:00	88.6	88.6	94.1	55	70.3	2	5	248	0.00	29.741 
14:05	88.6	88.6	93.7	54	69.8	3	7	270	0.00	29.741 
14:10	88.2	88.2	92.1	52	68.3	2	6	270	0.00	29.741 
14:15	87.0	87.0	90.8	54	68.3	2	5	248	0.00	29.739 
14:20	86.1	86.1	90.2	57	69.1	1	4	248	0.00	29.739 
14:25	85.3	85.3	89.2	58	68.8	2	4	248	0.00	29.739 
14:30	83.8	83.8	88.6	65	70.7	1	4	292	0.01	29.754 
14:35	80.9	80.9	84.8	72	71.0	2	6	270	0.03	29.754 
14:40	78.5	78.5	81.1	78	71.1	2	5	270	0.01	29.754 
14:45	77.4	77.4	79.2	85	72.5	2	3	270	0.01	29.754 
14:50	77.4	77.4	79.1	88	73.6	1	3	248	0.00	29.754 
14:55	77.9	77.9	80.2	88	74.0	0	2	248	0.00	29.754 
15:00	78.8	78.8	82.2	86	74.2	1	3	248	0.00	29.748 
15:05	79.6	79.6	83.5	81	73.2	1	3	248	0.00	29.748 
15:10	80.3	80.3	84.7	79	73.2	1	3	338	0.00	29.748 
15:15	81.2	81.2	86.3	77	73.3	1	2	248	0.00	29.737 
15:20	82.0	82.0	87.6	75	73.3	1	2	248	0.00	29.737 
15:25	82.6	82.6	88.4	73	73.0	0	2	248	0.00	29.737 
15:30	82.6	82.6	87.8	71	72.2	0	1	248	0.00	29.731 
15:35	82.2	82.2	87.0	71	71.8	0	2	248	0.00	29.731 
15:40	81.8	81.8	86.5	72	71.9	0	1	248	0.00	29.731 
15:45	81.2	81.2	85.5	73	71.7	0	1	248	0.00	29.750 
15:50	81.1	81.1	85.7	75	72.4	0	1	248	0.00	29.750 
15:55	80.7	80.7	85.2	77	72.8	0	1	248	0.00	29.750 
16:00	80.5	80.5	84.8	77	72.6	0	1	248	0.00	29.743 
16:05	80.5	80.5	85.0	78	73.0	0	1	248	0.00	29.743 
16:10	80.7	80.7	85.8	80	73.9	0	0	---	0.00	29.743 
16:15	80.7	80.7	85.2	77	72.8	0	1	248	0.00	29.733 
16:20	80.7	80.7	85.2	77	72.8	0	1	248	0.00	29.733 
16:25	80.9	80.9	85.8	78	73.4	0	1	248	0.00	29.733 
16:30	81.4	81.4	86.7	77	73.5	1	4	248	0.00	29.718 
16:35	82.0	82.0	87.6	75	73.3	1	4	90	0.00	29.718 
16:40	82.2	82.2	87.8	74	73.1	1	7	90	0.00	29.718 
16:45	81.8	81.8	86.9	74	72.7	1	4	135	0.00	29.721 
16:50	81.2	81.2	85.9	75	72.5	1	3	135	0.00	29.721 
16:55	80.5	80.5	84.5	75	71.8	1	3	135	0.00	29.721 
17:00	79.9	79.9	83.6	77	72.0	0	2	90	0.00	29.739 
17:05	79.2	79.2	82.5	79	72.1	1	4	90	0.00	29.739 
17:10	77.7	77.7	79.8	82	71.8	3	9	248	0.07	29.739 
17:15	72.5	72.5	72.5	81	66.3	7	16	270	0.02	29.795 
17:20	69.8	69.8	69.8	85	65.1	4	12	248	0.03	29.795 
17:25	68.8	68.8	68.8	88	65.1	2	5	270	0.02	29.795 
17:30	68.4	68.4	68.4	89	65.0	2	9	248	0.02	29.808 
17:35	68.3	68.3	68.3	90	65.2	3	6	248	0.02	29.808 
17:40	68.4	68.4	68.4	92	66.0	2	5	248	0.02	29.808 
17:45	68.6	68.6	68.6	92	66.2	1	4	270	0.03	29.770 
17:50	68.4	68.4	68.4	92	66.0	0	1	315	0.00	29.770 
17:55	68.4	68.4	68.4	92	66.0	0	0	---	0.01	29.770 
18:00	68.6	68.6	68.6	93	66.5	0	1	315	0.00	29.759 
18:05	68.6	68.6	68.6	93	66.5	0	1	315	0.01	29.759 
18:10	68.6	68.6	68.6	94	66.8	0	1	315	0.01	29.759 
18:15	68.6	68.6	68.6	94	66.8	0	2	248	0.00	29.750 
18:20	68.6	68.6	68.6	94	66.8	0	2	248	0.00	29.750 
18:25	68.8	68.8	68.8	94	67.0	0	2	248	0.00	29.750 
18:30	69.1	69.1	69.1	95	67.6	1	2	248	0.00	29.757 
18:35	69.4	69.4	69.4	95	67.9	0	1	248	0.00	29.757 
18:40	69.6	69.6	69.6	95	68.1	1	2	270	0.00	29.757 
18:45	69.8	69.8	69.8	95	68.3	0	1	248	0.00	29.754 
18:50	69.8	69.8	69.8	95	68.3	1	3	270	0.00	29.754 
18:55	69.9	69.9	69.9	95	68.4	0	2	270	0.00	29.754 
19:00	69.9	69.9	69.9	95	68.4	0	1	270	0.00	29.752 
19:05	69.9	69.9	69.9	95	68.4	0	2	270	0.00	29.752 
19:10	70.1	70.1	70.1	95	68.6	1	3	270	0.00	29.752 
19:15	70.3	70.3	70.3	95	68.8	0	2	270	0.00	29.753 
19:20	70.3	70.3	70.3	95	68.8	0	1	270	0.00	29.753 
19:25	70.3	70.3	70.3	94	68.5	0	2	270	0.00	29.753 
19:30	70.3	70.3	70.3	94	68.5	0	2	270	0.00	29.760 
19:35	70.4	70.4	70.4	94	68.6	0	1	270	0.00	29.760 
19:40	70.4	70.4	70.4	94	68.6	0	2	225	0.00	29.760 
19:45	70.4	70.4	70.4	94	68.6	0	1	225	0.00	29.771 
19:50	70.4	70.4	70.4	94	68.6	0	1	225	0.00	29.771 
19:55	70.4	70.4	70.4	94	68.6	0	1	225	0.00	29.771 
20:00	70.4	70.4	70.4	94	68.6	0	1	225	0.00	29.770 
20:05	70.4	70.4	70.4	94	68.6	0	0	---	0.00	29.770 
20:10	70.3	70.3	70.3	94	68.5	0	0	---	0.00	29.770 
20:15	70.3	70.3	70.3	94	68.5	0	0	---	0.00	29.779 
20:20	70.4	70.4	70.4	94	68.6	0	0	---	0.00	29.779 
20:25	70.4	70.4	70.4	95	68.9	0	1	225	0.00	29.779 
20:30	70.4	70.4	70.4	95	68.9	0	0	---	0.00	29.784 
20:35	70.4	70.4	70.4	95	68.9	0	1	225	0.00	29.784 
20:40	70.4	70.4	70.4	95	68.9	0	0	---	0.00	29.784 
20:45	70.4	70.4	70.4	95	68.9	0	0	---	0.00	29.786 
20:50	70.4	70.4	70.4	95	68.9	0	0	---	0.00	29.786 
20:55	70.4	70.4	70.4	95	68.9	0	0	---	0.00	29.786 
21:00	70.4	70.4	70.4	95	68.9	0	1	225	0.00	29.793 
21:05	70.4	70.4	70.4	95	68.9	0	1	225	0.00	29.793 
21:10	70.4	70.4	70.4	95	68.9	0	1	225	0.00	29.793 
21:15	70.4	70.4	70.4	95	68.9	0	1	225	0.00	29.789 
21:20	70.4	70.4	70.4	95	68.9	0	1	225	0.00	29.789 
21:25	70.4	70.4	70.4	95	68.9	0	0	---	0.00	29.789 
21:30	70.4	70.4	70.4	95	68.9	0	0	---	0.00	29.787 
21:35	70.3	70.3	70.3	95	68.8	0	0	---	0.00	29.787 
21:40	70.3	70.3	70.3	95	68.8	0	0	---	0.00	29.787 
21:45	70.3	70.3	70.3	95	68.8	0	0	---	0.00	29.794 
21:50	70.3	70.3	70.3	95	68.8	0	0	---	0.00	29.794 
21:55	70.3	70.3	70.3	95	68.8	0	0	---	0.00	29.794 
22:00	70.3	70.3	70.3	95	68.8	0	0	---	0.00	29.788 
22:05	70.3	70.3	70.3	95	68.8	0	0	---	0.00	29.788 
22:10	70.3	70.3	70.3	95	68.8	0	0	---	0.00	29.788 
22:15	70.3	70.3	70.3	95	68.8	0	0	---	0.00	29.791 
22:20	70.4	70.4	70.4	95	68.9	0	0	---	0.00	29.791 
22:25	70.4	70.4	70.4	96	69.2	0	1	225	0.00	29.791 
22:30	70.4	70.4	70.4	95	68.9	0	0	---	0.00	29.782 
22:35	70.4	70.4	70.4	95	68.9	0	0	---	0.00	29.782 
22:40	70.3	70.3	70.3	95	68.8	0	0	---	0.00	29.782 
22:45	70.3	70.3	70.3	96	69.1	0	0	---	0.00	29.771 
22:50	70.3	70.3	70.3	96	69.1	0	0	---	0.00	29.771 
22:55	70.3	70.3	70.3	96	69.1	0	0	---	0.00	29.771 
23:00	70.3	70.3	70.3	96	69.1	0	0	---	0.00	29.781 
23:05	70.3	70.3	70.3	96	69.1	0	0	---	0.00	29.782 
23:10	70.1	70.1	70.1	96	68.9	0	0	---	0.00	29.782 
23:15	70.1	70.1	70.1	96	68.9	0	0	---	0.00	29.783 
23:20	70.3	70.3	70.3	96	69.1	0	1	225	0.00	29.780 
23:25	70.3	70.3	70.3	96	69.1	0	1	225	0.00	29.774 
23:30	70.3	70.3	70.3	96	69.1	0	0	---	0.00	29.769 
23:35	70.3	70.3	70.3	96	69.1	0	1	225	0.00	29.769 
23:40	70.1	70.1	70.1	96	68.9	0	0	---	0.00	29.769 
23:45	70.1	70.1	70.1	96	68.9	0	0	---	0.00	29.753 
23:50	70.1	70.1	70.1	96	68.9	0	1	225	0.00	29.753 
23:55	69.9	69.9	69.9	96	68.7	0	0	---	0.00	29.753 

CoCoRaHS
IN-AL-39
A2 Web Hosting
Creative Commons License
GoDaddy
Look for:

loaded 2017-12-11 06:50:53 • last modified 2010-11-18 10:43:29
Privacy PolicyDisclaimer
• wx.awcolley.com is powered by PmWiki v.2002016 •
• all content (unless otherwise noted) © 2017 A W Colley